sensor_id;sensor_type;location;lat;lon;timestamp;P1;durP1;ratioP1;P2;durP2;ratioP2
17504;SDS011;8870;50.950;11.762;2023-05-10T00:03:29;4.05;;;0.80;;
17504;SDS011;8870;50.950;11.762;2023-05-10T00:09:04;2.08;;;1.00;;
17504;SDS011;8870;50.950;11.762;2023-05-10T00:14:23;1.73;;;0.88;;
17504;SDS011;8870;50.950;11.762;2023-05-10T00:19:55;1.52;;;0.95;;
17504;SDS011;8870;50.950;11.762;2023-05-10T00:25:17;1.00;;;0.90;;
17504;SDS011;8870;50.950;11.762;2023-05-10T00:30:48;1.23;;;1.00;;
17504;SDS011;8870;50.950;11.762;2023-05-10T00:36:06;1.88;;;1.00;;
17504;SDS011;8870;50.950;11.762;2023-05-10T00:41:41;2.28;;;0.80;;
17504;SDS011;8870;50.950;11.762;2023-05-10T00:47:01;2.55;;;0.80;;
17504;SDS011;8870;50.950;11.762;2023-05-10T00:52:33;1.92;;;0.95;;
17504;SDS011;8870;50.950;11.762;2023-05-10T00:57:54;1.77;;;0.90;;
17504;SDS011;8870;50.950;11.762;2023-05-10T01:03:26;3.45;;;0.90;;
17504;SDS011;8870;50.950;11.762;2023-05-10T01:08:45;2.78;;;0.80;;
17504;SDS011;8870;50.950;11.762;2023-05-10T01:14:19;1.30;;;1.00;;
17504;SDS011;8870;50.950;11.762;2023-05-10T01:19:40;2.83;;;0.90;;
17504;SDS011;8870;50.950;11.762;2023-05-10T01:31:21;1.90;;;0.90;;
17504;SDS011;8870;50.950;11.762;2023-05-10T01:37:13;2.97;;;1.00;;
17504;SDS011;8870;50.950;11.762;2023-05-10T01:42:39;1.58;;;0.90;;
17504;SDS011;8870;50.950;11.762;2023-05-10T01:48:17;1.50;;;0.90;;
17504;SDS011;8870;50.950;11.762;2023-05-10T01:53:40;2.40;;;0.95;;
17504;SDS011;8870;50.950;11.762;2023-05-10T01:59:12;1.27;;;0.90;;
17504;SDS011;8870;50.950;11.762;2023-05-10T02:04:42;2.58;;;1.00;;
17504;SDS011;8870;50.950;11.762;2023-05-10T02:10:05;1.27;;;0.88;;
17504;SDS011;8870;50.950;11.762;2023-05-10T02:15:39;1.90;;;1.00;;
17504;SDS011;8870;50.950;11.762;2023-05-10T02:21:06;1.83;;;1.00;;
17504;SDS011;8870;50.950;11.762;2023-05-10T02:26:41;2.05;;;0.98;;
17504;SDS011;8870;50.950;11.762;2023-05-10T02:32:01;1.10;;;1.00;;
17504;SDS011;8870;50.950;11.762;2023-05-10T02:37:33;1.25;;;0.93;;
17504;SDS011;8870;50.950;11.762;2023-05-10T02:42:56;2.88;;;1.02;;
17504;SDS011;8870;50.950;11.762;2023-05-10T02:48:29;2.40;;;0.98;;
17504;SDS011;8870;50.950;11.762;2023-05-10T02:53:47;1.23;;;0.90;;
17504;SDS011;8870;50.950;11.762;2023-05-10T02:59:23;1.83;;;1.10;;
17504;SDS011;8870;50.950;11.762;2023-05-10T03:04:42;2.47;;;0.90;;
17504;SDS011;8870;50.950;11.762;2023-05-10T03:10:13;2.95;;;1.08;;
17504;SDS011;8870;50.950;11.762;2023-05-10T03:15:37;4.88;;;1.10;;
17504;SDS011;8870;50.950;11.762;2023-05-10T03:21:13;2.40;;;1.00;;
17504;SDS011;8870;50.950;11.762;2023-05-10T03:26:42;4.32;;;1.15;;
17504;SDS011;8870;50.950;11.762;2023-05-10T03:32:17;1.10;;;1.00;;
17504;SDS011;8870;50.950;11.762;2023-05-10T03:37:36;1.60;;;0.93;;
17504;SDS011;8870;50.950;11.762;2023-05-10T03:43:09;1.67;;;1.20;;
17504;SDS011;8870;50.950;11.762;2023-05-10T03:48:30;1.85;;;0.93;;
17504;SDS011;8870;50.950;11.762;2023-05-10T03:54:01;2.63;;;1.00;;
17504;SDS011;8870;50.950;11.762;2023-05-10T03:59:20;1.10;;;1.00;;
17504;SDS011;8870;50.950;11.762;2023-05-10T04:04:54;2.17;;;1.10;;
17504;SDS011;8870;50.950;11.762;2023-05-10T04:10:12;2.08;;;1.10;;
17504;SDS011;8870;50.950;11.762;2023-05-10T04:15:43;2.35;;;1.00;;
17504;SDS011;8870;50.950;11.762;2023-05-10T04:21:04;1.10;;;1.00;;
17504;SDS011;8870;50.950;11.762;2023-05-10T04:26:35;1.20;;;1.00;;
17504;SDS011;8870;50.950;11.762;2023-05-10T04:31:53;1.20;;;0.90;;
17504;SDS011;8870;50.950;11.762;2023-05-10T04:37:27;1.67;;;1.08;;
17504;SDS011;8870;50.950;11.762;2023-05-10T04:42:46;1.52;;;0.90;;
17504;SDS011;8870;50.950;11.762;2023-05-10T04:48:17;3.05;;;0.95;;
17504;SDS011;8870;50.950;11.762;2023-05-10T04:53:38;1.60;;;0.90;;
17504;SDS011;8870;50.950;11.762;2023-05-10T04:59:20;1.70;;;0.90;;
17504;SDS011;8870;50.950;11.762;2023-05-10T05:04:38;3.38;;;0.93;;
17504;SDS011;8870;50.950;11.762;2023-05-10T05:10:12;2.72;;;0.90;;
17504;SDS011;8870;50.950;11.762;2023-05-10T05:15:30;3.05;;;1.08;;
17504;SDS011;8870;50.950;11.762;2023-05-10T05:21:01;1.52;;;1.08;;
17504;SDS011;8870;50.950;11.762;2023-05-10T05:26:22;1.95;;;1.08;;
17504;SDS011;8870;50.950;11.762;2023-05-10T05:31:54;2.28;;;1.00;;
17504;SDS011;8870;50.950;11.762;2023-05-10T05:37:12;3.30;;;1.10;;
17504;SDS011;8870;50.950;11.762;2023-05-10T05:42:49;1.42;;;1.02;;
17504;SDS011;8870;50.950;11.762;2023-05-10T05:48:07;2.35;;;1.02;;
17504;SDS011;8870;50.950;11.762;2023-05-10T05:53:38;1.17;;;1.00;;
17504;SDS011;8870;50.950;11.762;2023-05-10T05:58:59;1.92;;;0.95;;
17504;SDS011;8870;50.950;11.762;2023-05-10T06:04:30;1.95;;;1.20;;
17504;SDS011;8870;50.950;11.762;2023-05-10T06:09:51;1.88;;;1.02;;
17504;SDS011;8870;50.950;11.762;2023-05-10T06:15:25;2.00;;;1.10;;
17504;SDS011;8870;50.950;11.762;2023-05-10T06:20:43;3.15;;;1.30;;
17504;SDS011;8870;50.950;11.762;2023-05-10T06:26:14;1.38;;;1.23;;
17504;SDS011;8870;50.950;11.762;2023-05-10T06:31:35;3.42;;;1.10;;
17504;SDS011;8870;50.950;11.762;2023-05-10T06:37:06;4.78;;;1.20;;
17504;SDS011;8870;50.950;11.762;2023-05-10T06:42:24;1.67;;;1.30;;
17504;SDS011;8870;50.950;11.762;2023-05-10T06:47:58;1.35;;;1.00;;
17504;SDS011;8870;50.950;11.762;2023-05-10T06:53:16;1.83;;;1.20;;
17504;SDS011;8870;50.950;11.762;2023-05-10T06:58:47;1.25;;;1.15;;
17504;SDS011;8870;50.950;11.762;2023-05-10T07:04:08;4.00;;;1.30;;
17504;SDS011;8870;50.950;11.762;2023-05-10T07:09:39;2.83;;;1.30;;
17504;SDS011;8870;50.950;11.762;2023-05-10T07:14:57;1.95;;;1.30;;
17504;SDS011;8870;50.950;11.762;2023-05-10T07:20:31;2.13;;;1.30;;
17504;SDS011;8870;50.950;11.762;2023-05-10T07:25:49;1.30;;;1.20;;
17504;SDS011;8870;50.950;11.762;2023-05-10T07:31:21;1.50;;;1.30;;
17504;SDS011;8870;50.950;11.762;2023-05-10T07:36:42;1.80;;;1.48;;
17504;SDS011;8870;50.950;11.762;2023-05-10T07:42:13;3.72;;;1.50;;
17504;SDS011;8870;50.950;11.762;2023-05-10T07:47:31;1.48;;;1.30;;
17504;SDS011;8870;50.950;11.762;2023-05-10T07:53:05;2.97;;;1.58;;
17504;SDS011;8870;50.950;11.762;2023-05-10T07:58:23;2.50;;;1.50;;
17504;SDS011;8870;50.950;11.762;2023-05-10T08:03:55;1.60;;;1.50;;
17504;SDS011;8870;50.950;11.762;2023-05-10T08:09:16;2.42;;;1.50;;
17504;SDS011;8870;50.950;11.762;2023-05-10T08:14:47;2.40;;;1.50;;
17504;SDS011;8870;50.950;11.762;2023-05-10T08:20:06;2.15;;;1.95;;
17504;SDS011;8870;50.950;11.762;2023-05-10T08:25:42;3.83;;;2.20;;
17504;SDS011;8870;50.950;11.762;2023-05-10T08:31:00;2.75;;;1.48;;
17504;SDS011;8870;50.950;11.762;2023-05-10T08:36:31;1.60;;;1.50;;
17504;SDS011;8870;50.950;11.762;2023-05-10T08:41:52;2.00;;;1.60;;
17504;SDS011;8870;50.950;11.762;2023-05-10T08:47:29;1.60;;;1.50;;
17504;SDS011;8870;50.950;11.762;2023-05-10T08:52:48;1.48;;;1.38;;
17504;SDS011;8870;50.950;11.762;2023-05-10T08:58:26;1.55;;;1.30;;
17504;SDS011;8870;50.950;11.762;2023-05-10T09:03:45;1.70;;;1.50;;
17504;SDS011;8870;50.950;11.762;2023-05-10T09:09:17;2.65;;;1.55;;
17504;SDS011;8870;50.950;11.762;2023-05-10T09:14:38;1.90;;;1.50;;
17504;SDS011;8870;50.950;11.762;2023-05-10T09:20:10;3.10;;;1.60;;
17504;SDS011;8870;50.950;11.762;2023-05-10T09:25:28;2.38;;;1.75;;
17504;SDS011;8870;50.950;11.762;2023-05-10T09:31:03;1.50;;;1.40;;
17504;SDS011;8870;50.950;11.762;2023-05-10T09:36:34;2.80;;;1.50;;
17504;SDS011;8870;50.950;11.762;2023-05-10T09:41:53;1.42;;;1.33;;
17504;SDS011;8870;50.950;11.762;2023-05-10T09:47:28;1.73;;;1.33;;
17504;SDS011;8870;50.950;11.762;2023-05-10T09:52:47;1.38;;;1.27;;
17504;SDS011;8870;50.950;11.762;2023-05-10T09:58:20;1.85;;;1.52;;
17504;SDS011;8870;50.950;11.762;2023-05-10T10:03:44;1.42;;;1.17;;
17504;SDS011;8870;50.950;11.762;2023-05-10T10:09:19;1.45;;;1.30;;
17504;SDS011;8870;50.950;11.762;2023-05-10T10:14:37;1.33;;;1.23;;
17504;SDS011;8870;50.950;11.762;2023-05-10T10:20:14;1.23;;;1.10;;
17504;SDS011;8870;50.950;11.762;2023-05-10T10:25:34;1.20;;;1.10;;
17504;SDS011;8870;50.950;11.762;2023-05-10T10:31:13;1.52;;;1.10;;
17504;SDS011;8870;50.950;11.762;2023-05-10T10:36:55;1.48;;;1.10;;
17504;SDS011;8870;50.950;11.762;2023-05-10T10:42:23;1.00;;;1.00;;
17504;SDS011;8870;50.950;11.762;2023-05-10T10:48:20;1.25;;;0.95;;
17504;SDS011;8870;50.950;11.762;2023-05-10T10:53:42;1.00;;;0.90;;
17504;SDS011;8870;50.950;11.762;2023-05-10T10:59:19;1.08;;;0.93;;
17504;SDS011;8870;50.950;11.762;2023-05-10T11:04:44;1.10;;;1.00;;
17504;SDS011;8870;50.950;11.762;2023-05-10T11:10:21;1.58;;;0.90;;
17504;SDS011;8870;50.950;11.762;2023-05-10T11:15:43;1.00;;;0.77;;
17504;SDS011;8870;50.950;11.762;2023-05-10T11:21:20;0.77;;;0.77;;
17504;SDS011;8870;50.950;11.762;2023-05-10T11:26:42;0.75;;;0.70;;
17504;SDS011;8870;50.950;11.762;2023-05-10T11:32:13;0.60;;;0.60;;
17504;SDS011;8870;50.950;11.762;2023-05-10T11:37:32;0.68;;;0.68;;
17504;SDS011;8870;50.950;11.762;2023-05-10T11:42:55;0.50;;;0.50;;
17504;SDS011;8870;50.950;11.762;2023-05-10T11:48:27;0.98;;;0.88;;
17504;SDS011;8870;50.950;11.762;2023-05-10T11:53:48;1.20;;;1.00;;
17504;SDS011;8870;50.950;11.762;2023-05-10T11:59:23;1.33;;;1.00;;
17504;SDS011;8870;50.950;11.762;2023-05-10T12:04:42;1.73;;;1.10;;
17504;SDS011;8870;50.950;11.762;2023-05-10T12:10:14;1.20;;;1.10;;
17504;SDS011;8870;50.950;11.762;2023-05-10T12:15:35;1.02;;;0.80;;
17504;SDS011;8870;50.950;11.762;2023-05-10T12:21:06;1.30;;;0.80;;
17504;SDS011;8870;50.950;11.762;2023-05-10T12:26:27;1.00;;;0.90;;
17504;SDS011;8870;50.950;11.762;2023-05-10T12:32:03;1.15;;;0.80;;
17504;SDS011;8870;50.950;11.762;2023-05-10T12:37:23;1.30;;;0.88;;
17504;SDS011;8870;50.950;11.762;2023-05-10T12:42:57;3.72;;;0.70;;
17504;SDS011;8870;50.950;11.762;2023-05-10T12:48:18;0.63;;;0.57;;
17504;SDS011;8870;50.950;11.762;2023-05-10T12:53:50;0.25;;;0.25;;
17504;SDS011;8870;50.950;11.762;2023-05-10T12:59:09;1.08;;;0.30;;
17504;SDS011;8870;50.950;11.762;2023-05-10T13:04:45;0.20;;;0.20;;
17504;SDS011;8870;50.950;11.762;2023-05-10T13:10:04;0.40;;;0.20;;
17504;SDS011;8870;50.950;11.762;2023-05-10T13:15:37;0.20;;;0.10;;
17504;SDS011;8870;50.950;11.762;2023-05-10T13:21:02;1.05;;;0.20;;
17504;SDS011;8870;50.950;11.762;2023-05-10T13:26:33;0.68;;;0.10;;
17504;SDS011;8870;50.950;11.762;2023-05-10T13:31:51;0.10;;;0.10;;
17504;SDS011;8870;50.950;11.762;2023-05-10T13:37:25;0.47;;;0.10;;
17504;SDS011;8870;50.950;11.762;2023-05-10T13:42:43;0.50;;;0.50;;
17504;SDS011;8870;50.950;11.762;2023-05-10T13:48:14;1.17;;;0.20;;
17504;SDS011;8870;50.950;11.762;2023-05-10T13:53:35;2.08;;;0.50;;
17504;SDS011;8870;50.950;11.762;2023-05-10T13:59:08;0.10;;;0.10;;
17504;SDS011;8870;50.950;11.762;2023-05-10T14:04:26;0.03;;;0.03;;
17504;SDS011;8870;50.950;11.762;2023-05-10T14:10:01;0.38;;;0.20;;
17504;SDS011;8870;50.950;11.762;2023-05-10T14:15:19;1.98;;;0.20;;
17504;SDS011;8870;50.950;11.762;2023-05-10T14:20:52;0.25;;;0.25;;
17504;SDS011;8870;50.950;11.762;2023-05-10T14:26:13;0.20;;;0.20;;
17504;SDS011;8870;50.950;11.762;2023-05-10T14:31:44;0.30;;;0.30;;
17504;SDS011;8870;50.950;11.762;2023-05-10T14:37:02;0.20;;;0.20;;
17504;SDS011;8870;50.950;11.762;2023-05-10T14:42:36;0.30;;;0.20;;
17504;SDS011;8870;50.950;11.762;2023-05-10T14:47:54;0.50;;;0.22;;
17504;SDS011;8870;50.950;11.762;2023-05-10T14:53:26;1.10;;;0.30;;
17504;SDS011;8870;50.950;11.762;2023-05-10T14:58:47;0.85;;;0.20;;
17504;SDS011;8870;50.950;11.762;2023-05-10T15:04:20;0.28;;;0.20;;
17504;SDS011;8870;50.950;11.762;2023-05-10T15:09:38;0.40;;;0.20;;
17504;SDS011;8870;50.950;11.762;2023-05-10T15:15:12;0.08;;;0.08;;
17504;SDS011;8870;50.950;11.762;2023-05-10T15:20:30;0.32;;;0.15;;
17504;SDS011;8870;50.950;11.762;2023-05-10T15:26:02;0.73;;;0.20;;
17504;SDS011;8870;50.950;11.762;2023-05-10T15:31:30;0.55;;;0.10;;
17504;SDS011;8870;50.950;11.762;2023-05-10T15:37:02;0.10;;;0.10;;
17504;SDS011;8870;50.950;11.762;2023-05-10T15:42:20;0.32;;;0.20;;
17504;SDS011;8870;50.950;11.762;2023-05-10T15:47:54;0.22;;;0.10;;
17504;SDS011;8870;50.950;11.762;2023-05-10T15:53:12;0.30;;;0.20;;
17504;SDS011;8870;50.950;11.762;2023-05-10T15:58:43;1.02;;;0.20;;
17504;SDS011;8870;50.950;11.762;2023-05-10T16:04:04;0.88;;;0.20;;
17504;SDS011;8870;50.950;11.762;2023-05-10T16:09:28;1.55;;;0.10;;
17504;SDS011;8870;50.950;11.762;2023-05-10T16:14:53;1.88;;;0.20;;
17504;SDS011;8870;50.950;11.762;2023-05-10T16:20:14;0.30;;;0.30;;
17504;SDS011;8870;50.950;11.762;2023-05-10T16:25:50;0.20;;;0.20;;
17504;SDS011;8870;50.950;11.762;2023-05-10T16:31:09;0.30;;;0.30;;
17504;SDS011;8870;50.950;11.762;2023-05-10T16:36:44;0.47;;;0.22;;
17504;SDS011;8870;50.950;11.762;2023-05-10T16:42:03;1.00;;;0.30;;
17504;SDS011;8870;50.950;11.762;2023-05-10T16:47:36;0.45;;;0.45;;
17504;SDS011;8870;50.950;11.762;2023-05-10T16:52:58;0.70;;;0.38;;
17504;SDS011;8870;50.950;11.762;2023-05-10T16:58:29;0.35;;;0.30;;
17504;SDS011;8870;50.950;11.762;2023-05-10T17:03:48;1.45;;;0.40;;
17504;SDS011;8870;50.950;11.762;2023-05-10T17:09:21;1.02;;;0.47;;
17504;SDS011;8870;50.950;11.762;2023-05-10T17:14:39;0.45;;;0.40;;
17504;SDS011;8870;50.950;11.762;2023-05-10T17:20:10;0.60;;;0.60;;
17504;SDS011;8870;50.950;11.762;2023-05-10T17:25:31;0.68;;;0.68;;
17504;SDS011;8870;50.950;11.762;2023-05-10T17:31:05;0.70;;;0.70;;
17504;SDS011;8870;50.950;11.762;2023-05-10T17:36:37;0.60;;;0.60;;
17504;SDS011;8870;50.950;11.762;2023-05-10T17:41:58;3.72;;;0.80;;
17504;SDS011;8870;50.950;11.762;2023-05-10T17:47:29;0.82;;;0.60;;
17504;SDS011;8870;50.950;11.762;2023-05-10T17:52:48;1.00;;;0.60;;
17504;SDS011;8870;50.950;11.762;2023-05-10T17:58:21;0.52;;;0.50;;
17504;SDS011;8870;50.950;11.762;2023-05-10T18:03:40;0.98;;;0.80;;
17504;SDS011;8870;50.950;11.762;2023-05-10T18:09:12;0.82;;;0.70;;
17504;SDS011;8870;50.950;11.762;2023-05-10T18:14:34;0.80;;;0.80;;
17504;SDS011;8870;50.950;11.762;2023-05-10T18:20:06;0.82;;;0.60;;
17504;SDS011;8870;50.950;11.762;2023-05-10T18:25:26;0.80;;;0.80;;
17504;SDS011;8870;50.950;11.762;2023-05-10T18:31:00;1.33;;;0.70;;
17504;SDS011;8870;50.950;11.762;2023-05-10T18:36:32;0.60;;;0.60;;
17504;SDS011;8870;50.950;11.762;2023-05-10T18:41:51;0.60;;;0.60;;
17504;SDS011;8870;50.950;11.762;2023-05-10T18:47:25;0.70;;;0.60;;
17504;SDS011;8870;50.950;11.762;2023-05-10T18:52:44;0.82;;;0.73;;
17504;SDS011;8870;50.950;11.762;2023-05-10T18:58:16;0.80;;;0.60;;
17504;SDS011;8870;50.950;11.762;2023-05-10T19:03:37;1.23;;;0.70;;
17504;SDS011;8870;50.950;11.762;2023-05-10T19:09:08;0.90;;;0.80;;
17504;SDS011;8870;50.950;11.762;2023-05-10T19:14:27;0.55;;;0.50;;
17504;SDS011;8870;50.950;11.762;2023-05-10T19:20:00;2.67;;;0.60;;
17504;SDS011;8870;50.950;11.762;2023-05-10T19:25:19;1.75;;;0.80;;
17504;SDS011;8870;50.950;11.762;2023-05-10T19:30:53;1.00;;;0.80;;
17504;SDS011;8870;50.950;11.762;2023-05-10T19:36:28;1.40;;;0.80;;
17504;SDS011;8870;50.950;11.762;2023-05-10T19:41:47;0.70;;;0.70;;
17504;SDS011;8870;50.950;11.762;2023-05-10T19:47:18;0.40;;;0.40;;
17504;SDS011;8870;50.950;11.762;2023-05-10T19:52:39;0.93;;;0.30;;
17504;SDS011;8870;50.950;11.762;2023-05-10T19:58:10;0.85;;;0.40;;
17504;SDS011;8870;50.950;11.762;2023-05-10T20:03:29;0.52;;;0.32;;
17504;SDS011;8870;50.950;11.762;2023-05-10T20:09:02;2.25;;;0.40;;
17504;SDS011;8870;50.950;11.762;2023-05-10T20:14:21;1.25;;;0.45;;
17504;SDS011;8870;50.950;11.762;2023-05-10T20:19:51;0.57;;;0.40;;
17504;SDS011;8870;50.950;11.762;2023-05-10T20:25:12;0.52;;;0.40;;
17504;SDS011;8870;50.950;11.762;2023-05-10T20:30:45;0.75;;;0.30;;
17504;SDS011;8870;50.950;11.762;2023-05-10T20:36:16;2.33;;;0.70;;
17504;SDS011;8870;50.950;11.762;2023-05-10T20:41:38;0.40;;;0.40;;
17504;SDS011;8870;50.950;11.762;2023-05-10T20:47:10;0.40;;;0.40;;
17504;SDS011;8870;50.950;11.762;2023-05-10T20:52:28;0.30;;;0.30;;
17504;SDS011;8870;50.950;11.762;2023-05-10T20:58:01;1.05;;;0.45;;
17504;SDS011;8870;50.950;11.762;2023-05-10T21:03:20;3.30;;;0.40;;
17504;SDS011;8870;50.950;11.762;2023-05-10T21:08:52;0.75;;;0.50;;
17504;SDS011;8870;50.950;11.762;2023-05-10T21:14:12;0.73;;;0.40;;
17504;SDS011;8870;50.950;11.762;2023-05-10T21:19:44;0.45;;;0.45;;
17504;SDS011;8870;50.950;11.762;2023-05-10T21:25:02;0.55;;;0.30;;
17504;SDS011;8870;50.950;11.762;2023-05-10T21:30:36;0.80;;;0.35;;
17504;SDS011;8870;50.950;11.762;2023-05-10T21:35:55;0.88;;;0.50;;
17504;SDS011;8870;50.950;11.762;2023-05-10T21:41:28;0.73;;;0.50;;
17504;SDS011;8870;50.950;11.762;2023-05-10T21:46:48;0.57;;;0.50;;
17504;SDS011;8870;50.950;11.762;2023-05-10T21:52:20;0.40;;;0.30;;
17504;SDS011;8870;50.950;11.762;2023-05-10T21:57:38;1.17;;;0.40;;
17504;SDS011;8870;50.950;11.762;2023-05-10T22:03:12;0.40;;;0.40;;
17504;SDS011;8870;50.950;11.762;2023-05-10T22:08:31;0.43;;;0.28;;
17504;SDS011;8870;50.950;11.762;2023-05-10T22:14:02;1.25;;;0.52;;
17504;SDS011;8870;50.950;11.762;2023-05-10T22:19:22;0.30;;;0.30;;
17504;SDS011;8870;50.950;11.762;2023-05-10T22:24:54;3.55;;;0.60;;
17504;SDS011;8870;50.950;11.762;2023-05-10T22:30:12;0.65;;;0.52;;
17504;SDS011;8870;50.950;11.762;2023-05-10T22:35:48;1.52;;;0.60;;
17504;SDS011;8870;50.950;11.762;2023-05-10T22:41:07;0.45;;;0.45;;
17504;SDS011;8870;50.950;11.762;2023-05-10T22:46:37;0.98;;;0.52;;
17504;SDS011;8870;50.950;11.762;2023-05-10T22:51:58;0.75;;;0.63;;
17504;SDS011;8870;50.950;11.762;2023-05-10T22:57:30;0.70;;;0.57;;
17504;SDS011;8870;50.950;11.762;2023-05-10T23:02:48;1.27;;;0.52;;
17504;SDS011;8870;50.950;11.762;2023-05-10T23:08:23;1.75;;;0.70;;
17504;SDS011;8870;50.950;11.762;2023-05-10T23:13:42;1.00;;;0.70;;
17504;SDS011;8870;50.950;11.762;2023-05-10T23:19:14;0.70;;;0.60;;
17504;SDS011;8870;50.950;11.762;2023-05-10T23:24:37;0.70;;;0.70;;
17504;SDS011;8870;50.950;11.762;2023-05-10T23:30:09;1.70;;;0.57;;
17504;SDS011;8870;50.950;11.762;2023-05-10T23:35:28;0.70;;;0.70;;
17504;SDS011;8870;50.950;11.762;2023-05-10T23:41:01;1.67;;;0.90;;
17504;SDS011;8870;50.950;11.762;2023-05-10T23:46:20;0.80;;;0.80;;
17504;SDS011;8870;50.950;11.762;2023-05-10T23:51:52;1.20;;;0.80;;
17504;SDS011;8870;50.950;11.762;2023-05-10T23:57:12;1.25;;;0.80;;
